TAF and METAR

No METAR available for Walvis Bay Airport

TAF for Walvis Bay Airport

TAF FYWB 011000Z 0112/0212 28005KT CAVOK BECMG 0113/0115 20017KT BECMG 0119/0121 28006KT 9999 BKN015
Report created 1. apr 12:00

between 1. apr 14:00 - 2. apr 14:00

wind 5 knots from W (280°) Clear sky

becoming between 1. apr 15:00 - 1. apr 17:00

wind 17 knots from SSW (200°)

becoming between 1. apr 21:00 - 1. apr 23:00

wind 6 knots from W (280°) visibility > 10km broken clouds (~75% cover) at 1500 feet
Walvis Bay Airport in Namibia at 46m

Latest 5 airports